Time;durP1;ratioP1;P1;durP2;ratioP2;P2;SDS_P1;SDS_P2;PMS_P1;PMS_P2;Temp;Humidity;BMP_temperature;BMP_pressure;BME280_temperature;BME280_humidity;BME280_pressure;Samples;Min_cycle;Max_cycle;Signal;HPM_P1;HPM_P2
2022/10/21 00:00:54;;;;;;;;;;;;;;;;;;5026425;28;19920;-81
2022/10/21 00:03:19;;;;;;;;;;;;;;;;;;5003720;28;20308;-81
2022/10/21 00:05:45;;;;;;;;;;;;;;;;;;4998357;28;20364;-81
2022/10/21 00:08:10;;;;;;;;;;;;;;;;;;5019626;28;20046;-80
2022/10/21 00:10:36;;;;;;;;;;;;;;;;;;5025919;28;19929;-81
2022/10/21 00:13:01;;;;;;;;;;;;;;;;;;5008263;28;19917;-79
2022/10/21 00:15:26;;;;;;;;;;;;;;;;;;5019004;28;19925;-81
2022/10/21 00:17:55;;;;;;;;;;;;;;;;;;5031079;28;19917;-86
2022/10/21 00:20:20;;;;;;;;;;;;;;;;;;5003286;28;19913;-78
2022/10/21 00:22:46;;;;;;;;;;;;;;;;;;5006538;28;19991;-78
2022/10/21 00:25:11;;;;;;;;;;;;;;;;;;4996834;28;19917;-76
2022/10/21 00:27:36;;;;;;;;;;;;;;;;;;5036411;28;19917;-79
2022/10/21 00:30:02;;;;;;;;;;;;;;;;;;5028183;28;19924;-84
2022/10/21 00:32:29;;;;;;;;;;;;;;;;;;4998705;28;19913;-81
2022/10/21 00:34:55;;;;;;;;;;;;;;;;;;4996937;28;19914;-82
2022/10/21 00:37:20;;;;;;;;;;;;;;;;;;5019021;28;19914;-81
2022/10/21 00:39:46;;;;;;;;;;;;;;;;;;5012353;28;20521;-81
2022/10/21 00:42:11;;;;;;;;;;;;;;;;;;5000845;28;19919;-81
2022/10/21 00:44:36;;;;;;;;;;;;;;;;;;5024794;28;19917;-82
2022/10/21 00:47:02;;;;;;;;;;;;;;;;;;5007628;28;19932;-80
2022/10/21 00:49:27;;;;;;;;;;;;;;;;;;4999403;28;20392;-80
2022/10/21 00:51:53;;;;;;;;;;;;;;;;;;4996095;28;19913;-80
2022/10/21 00:54:18;;;;;;;;;;;;;;;;;;5001683;28;20443;-81
2022/10/21 00:56:43;;;;;;;;;;;;;;;;;;4997136;28;19920;-86
2022/10/21 00:59:11;;;;;;;;;;;;;;;;;;5007348;28;19914;-84
2022/10/21 01:01:44;;;;;;;;;;;;;;;;;;5032218;28;19917;-89
2022/10/21 01:04:27;;;;;;;;;;;;;;;;;;4989310;28;19917;-78
2022/10/21 01:06:52;;;;;;;;;;;;;;;;;;5023403;28;20292;-77
2022/10/21 01:09:18;;;;;;;;;;;;;;;;;;4980272;28;851649;-78
2022/10/21 01:11:43;;;;;;;;;;;;;;;;;;5017568;28;20289;-78
2022/10/21 01:14:09;;;;;;;;;;;;;;;;;;5028978;28;19914;-77
2022/10/21 01:16:35;;;;;;;;;;;;;;;;;;4989238;28;19913;-92
2022/10/21 01:19:00;;;;;;;;;;;;;;;;;;5023752;28;19913;-89
2022/10/21 01:21:26;;;;;;;;;;;;;;;;;;4999161;28;19917;-91
2022/10/21 01:23:51;;;;;;;;;;;;;;;;;;5013464;28;19992;-80
2022/10/21 01:26:16;;;;;;;;;;;;;;;;;;5019790;28;20372;-85
2022/10/21 01:28:42;;;;;;;;;;;;;;;;;;5024711;28;19924;-86
2022/10/21 01:31:07;;;;;;;;;;;;;;;;;;5008712;28;19917;-86
2022/10/21 01:33:32;;;;;;;;;;;;;;;;;;4979782;28;19935;-87
2022/10/21 01:35:58;;;;;;;;;;;;;;;;;;5009930;28;20003;-87
2022/10/21 01:38:23;;;;;;;;;;;;;;;;;;4999720;28;19921;-84
2022/10/21 01:40:48;;;;;;;;;;;;;;;;;;5006326;28;19913;-86
2022/10/21 01:43:13;;;;;;;;;;;;;;;;;;4993552;28;19951;-87
2022/10/21 01:45:39;;;;;;;;;;;;;;;;;;4997453;28;20373;-87
2022/10/21 01:48:04;;;;;;;;;;;;;;;;;;5012344;28;20012;-86
2022/10/21 01:50:30;;;;;;;;;;;;;;;;;;5021684;28;19917;-86
2022/10/21 01:52:55;;;;;;;;;;;;;;;;;;4996473;28;20368;-85
2022/10/21 01:55:20;;;;;;;;;;;;;;;;;;5007664;28;20411;-85
2022/10/21 01:57:46;;;;;;;;;;;;;;;;;;5014834;28;20291;-86
2022/10/21 02:00:11;;;;;;;;;;;;;;;;;;5019001;28;19913;-86
2022/10/21 02:02:36;;;;;;;;;;;;;;;;;;5007842;28;19971;-87
2022/10/21 02:05:02;;;;;;;;;;;;;;;;;;5027319;28;19917;-85
2022/10/21 02:07:27;;;;;;;;;;;;;;;;;;5002818;28;20365;-86
2022/10/21 02:09:52;;;;;;;;;;;;;;;;;;5014830;28;19917;-86
2022/10/21 02:12:18;;;;;;;;;;;;;;;;;;5003780;28;19913;-86
2022/10/21 02:14:43;;;;;;;;;;;;;;;;;;5018173;28;19955;-85
2022/10/21 02:17:08;;;;;;;;;;;;;;;;;;5016955;28;19913;-86
2022/10/21 02:19:34;;;;;;;;;;;;;;;;;;5020286;28;19913;-87
2022/10/21 02:21:59;;;;;;;;;;;;;;;;;;5016673;28;20444;-87
2022/10/21 02:24:24;;;;;;;;;;;;;;;;;;5026172;28;19920;-88
2022/10/21 02:26:50;;;;;;;;;;;;;;;;;;5023176;28;20007;-88
2022/10/21 02:29:15;;;;;;;;;;;;;;;;;;5019169;28;20381;-87
2022/10/21 02:31:41;;;;;;;;;;;;;;;;;;5029487;28;19921;-86
2022/10/21 02:34:06;;;;;;;;;;;;;;;;;;5007223;28;19923;-85
2022/10/21 02:36:31;;;;;;;;;;;;;;;;;;5002063;28;19914;-83
2022/10/21 02:38:57;;;;;;;;;;;;;;;;;;5018257;28;19913;-85
2022/10/21 02:41:22;;;;;;;;;;;;;;;;;;5010962;28;19924;-82
2022/10/21 02:43:50;;;;;;;;;;;;;;;;;;5037584;28;19913;-84
2022/10/21 02:46:15;;;;;;;;;;;;;;;;;;5028360;28;20017;-85
2022/10/21 02:48:41;;;;;;;;;;;;;;;;;;5016045;28;19975;-83
2022/10/21 02:51:06;;;;;;;;;;;;;;;;;;5016291;28;19921;-81
2022/10/21 02:53:31;;;;;;;;;;;;;;;;;;4979696;28;19992;-86
2022/10/21 02:55:57;;;;;;;;;;;;;;;;;;4998196;28;20280;-86
2022/10/21 02:58:24;;;;;;;;;;;;;;;;;;5008305;28;19914;-84
2022/10/21 03:00:50;;;;;;;;;;;;;;;;;;5005123;28;20415;-85
2022/10/21 03:03:15;;;;;;;;;;;;;;;;;;5018384;28;20377;-86
2022/10/21 03:05:41;;;;;;;;;;;;;;;;;;5028629;28;20082;-85
2022/10/21 03:08:08;;;;;;;;;;;;;;;;;;4998725;23;19929;-77
2022/10/21 03:10:37;;;;;;;;;;;;;;;;;;5009582;28;19923;-77
2022/10/21 03:13:02;;;;;;;;;;;;;;;;;;5011834;28;19923;-77
2022/10/21 03:15:28;;;;;;;;;;;;;;;;;;5040435;28;20004;-77
2022/10/21 03:17:53;;;;;;;;;;;;;;;;;;5014571;28;19935;-77
2022/10/21 03:20:19;;;;;;;;;;;;;;;;;;4988294;28;19914;-78
2022/10/21 03:22:44;;;;;;;;;;;;;;;;;;5025962;28;19941;-77
2022/10/21 03:25:10;;;;;;;;;;;;;;;;;;5011076;28;19963;-78
2022/10/21 03:27:35;;;;;;;;;;;;;;;;;;5018172;28;19924;-77
2022/10/21 03:30:00;;;;;;;;;;;;;;;;;;5030897;28;19917;-76
2022/10/21 03:32:26;;;;;;;;;;;;;;;;;;5021099;28;19917;-76
2022/10/21 03:34:51;;;;;;;;;;;;;;;;;;5021935;28;20000;-76
2022/10/21 03:37:17;;;;;;;;;;;;;;;;;;5025257;28;19956;-78
2022/10/21 03:39:42;;;;;;;;;;;;;;;;;;4987163;28;19914;-78
2022/10/21 03:42:08;;;;;;;;;;;;;;;;;;5032258;28;19920;-78
2022/10/21 03:44:33;;;;;;;;;;;;;;;;;;5016232;28;19914;-78
2022/10/21 03:46:59;;;;;;;;;;;;;;;;;;5023385;28;19936;-78
2022/10/21 03:49:24;;;;;;;;;;;;;;;;;;5022638;28;19914;-78
2022/10/21 03:51:50;;;;;;;;;;;;;;;;;;5030016;28;19917;-78
2022/10/21 03:54:15;;;;;;;;;;;;;;;;;;5030262;28;19957;-78
2022/10/21 03:56:41;;;;;;;;;;;;;;;;;;5020627;28;19979;-79
2022/10/21 03:59:06;;;;;;;;;;;;;;;;;;5023667;28;20267;-79
2022/10/21 04:01:31;;;;;;;;;;;;;;;;;;4995129;28;19913;-78
2022/10/21 04:03:57;;;;;;;;;;;;;;;;;;5016943;28;20335;-78
2022/10/21 04:06:22;;;;;;;;;;;;;;;;;;5029550;28;19940;-78
2022/10/21 04:08:48;;;;;;;;;;;;;;;;;;5004631;28;20288;-79
2022/10/21 04:11:13;;;;;;;;;;;;;;;;;;5022615;28;19925;-77
2022/10/21 04:13:39;;;;;;;;;;;;;;;;;;5029149;28;19913;-76
2022/10/21 04:16:04;;;;;;;;;;;;;;;;;;5018255;28;20000;-79
2022/10/21 04:18:29;;;;;;;;;;;;;;;;;;5028273;28;20008;-77
2022/10/21 04:20:55;;;;;;;;;;;;;;;;;;5022346;28;19924;-78
2022/10/21 04:23:20;;;;;;;;;;;;;;;;;;5021854;28;20269;-77
2022/10/21 04:25:46;;;;;;;;;;;;;;;;;;5029132;28;19921;-80
2022/10/21 04:28:11;;;;;;;;;;;;;;;;;;5000209;28;19914;-79
2022/10/21 04:30:37;;;;;;;;;;;;;;;;;;5027135;28;19917;-79
2022/10/21 04:33:02;;;;;;;;;;;;;;;;;;4989644;28;19913;-79
2022/10/21 04:35:27;;;;;;;;;;;;;;;;;;5020331;28;19920;-81
2022/10/21 04:37:53;;;;;;;;;;;;;;;;;;5013196;28;20403;-81
2022/10/21 04:40:18;;;;;;;;;;;;;;;;;;4984740;28;20292;-81
2022/10/21 04:42:44;;;;;;;;;;;;;;;;;;5000615;28;19913;-82
2022/10/21 04:45:09;;;;;;;;;;;;;;;;;;4989824;28;19913;-81
2022/10/21 04:47:35;;;;;;;;;;;;;;;;;;5027985;28;19917;-82
2022/10/21 04:50:00;;;;;;;;;;;;;;;;;;5016860;28;20435;-80
2022/10/21 04:52:26;;;;;;;;;;;;;;;;;;4995706;28;19914;-81
2022/10/21 04:54:51;;;;;;;;;;;;;;;;;;5021314;28;19913;-79
2022/10/21 04:57:16;;;;;;;;;;;;;;;;;;5021643;28;19980;-80
2022/10/21 04:59:42;;;;;;;;;;;;;;;;;;5028163;28;19966;-78
2022/10/21 05:02:07;;;;;;;;;;;;;;;;;;5000295;28;19917;-80
2022/10/21 05:04:33;;;;;;;;;;;;;;;;;;5012515;28;19920;-79
2022/10/21 05:06:58;;;;;;;;;;;;;;;;;;4990063;28;19913;-80
2022/10/21 05:09:24;;;;;;;;;;;;;;;;;;5033814;28;19917;-79
2022/10/21 05:11:49;;;;;;;;;;;;;;;;;;5019075;28;19921;-78
2022/10/21 05:14:14;;;;;;;;;;;;;;;;;;5030003;28;20432;-78
2022/10/21 05:16:40;;;;;;;;;;;;;;;;;;5020839;28;19920;-79
2022/10/21 05:19:06;;;;;;;;;;;;;;;;;;5022315;28;20405;-79
2022/10/21 05:21:31;;;;;;;;;;;;;;;;;;5026311;28;19914;-79
2022/10/21 05:23:57;;;;;;;;;;;;;;;;;;5016669;28;19960;-78
2022/10/21 05:26:23;;;;;;;;;;;;;;;;;;5012006;28;19913;-78
2022/10/21 05:28:48;;;;;;;;;;;;;;;;;;5013614;28;20278;-78
2022/10/21 05:31:13;;;;;;;;;;;;;;;;;;5019924;28;19917;-77
2022/10/21 05:33:39;;;;;;;;;;;;;;;;;;5026710;28;19993;-79
2022/10/21 05:36:07;;;;;;;;;;;;;;;;;;4983048;28;20000;-77
2022/10/21 05:38:33;;;;;;;;;;;;;;;;;;5010361;28;19920;-80
2022/10/21 05:40:58;;;;;;;;;;;;;;;;;;5021358;28;20288;-79
2022/10/21 05:43:23;;;;;;;;;;;;;;;;;;5035617;28;19914;-79
2022/10/21 05:45:49;;;;;;;;;;;;;;;;;;4995177;28;19909;-79
2022/10/21 05:48:17;;;;;;;;;;;;;;;;;;5015474;28;20404;-79
2022/10/21 05:50:42;;;;;;;;;;;;;;;;;;5025234;28;19971;-80
2022/10/21 05:53:07;;;;;;;;;;;;;;;;;;5005285;28;20345;-80
2022/10/21 05:55:33;;;;;;;;;;;;;;;;;;5015273;28;19920;-79
2022/10/21 05:57:59;;;;;;;;;;;;;;;;;;5014949;28;19988;-79
2022/10/21 06:00:24;;;;;;;;;;;;;;;;;;5027375;28;19914;-79
2022/10/21 06:02:50;;;;;;;;;;;;;;;;;;5019022;28;19953;-79
2022/10/21 06:05:15;;;;;;;;;;;;;;;;;;5037230;28;20359;-80
2022/10/21 06:07:41;;;;;;;;;;;;;;;;;;5026423;28;19914;-79
2022/10/21 06:10:10;;;;;;;;;;;;;;;;;;5015139;28;20015;-78
2022/10/21 06:12:36;;;;;;;;;;;;;;;;;;5024960;28;19917;-78
2022/10/21 06:15:02;;;;;;;;;;;;;;;;;;5022334;28;20289;-77
2022/10/21 06:17:28;;;;;;;;;;;;;;;;;;5034859;28;20001;-77
2022/10/21 06:19:54;;;;;;;;;;;;;;;;;;5045068;28;20388;-78
2022/10/21 06:22:19;;;;;;;;;;;;;;;;;;5015256;28;20395;-77
2022/10/21 06:24:44;;;;;;;;;;;;;;;;;;5024912;28;20304;-81
2022/10/21 06:27:10;;;;;;;;;;;;;;;;;;5022495;28;19913;-79
2022/10/21 06:29:35;;;;;;;;;;;;;;;;;;5031264;28;20365;-78
2022/10/21 06:32:01;;;;;;;;;;;;;;;;;;5014960;28;19913;-81
2022/10/21 06:34:26;;;;;;;;;;;;;;;;;;5026601;28;19914;-79
2022/10/21 06:36:52;;;;;;;;;;;;;;;;;;5019409;28;19913;-79
2022/10/21 06:39:17;;;;;;;;;;;;;;;;;;4986999;28;20328;-79
2022/10/21 06:41:43;;;;;;;;;;;;;;;;;;5027518;28;20339;-79
2022/10/21 06:44:09;;;;;;;;;;;;;;;;;;5014794;28;19960;-79
2022/10/21 06:46:34;;;;;;;;;;;;;;;;;;5025513;28;19917;-80
2022/10/21 06:49:00;;;;;;;;;;;;;;;;;;5021951;28;19909;-78
2022/10/21 06:51:25;;;;;;;;;;;;;;;;;;5014805;28;19928;-79
2022/10/21 06:53:51;;;;;;;;;;;;;;;;;;4982817;28;20364;-82
2022/10/21 06:56:16;;;;;;;;;;;;;;;;;;5027891;28;19921;-79
2022/10/21 06:58:45;;;;;;;;;;;;;;;;;;5034980;28;19910;-80
2022/10/21 07:01:10;;;;;;;;;;;;;;;;;;5004373;28;20060;-82
2022/10/21 07:03:38;;;;;;;;;;;;;;;;;;5025599;28;19967;-81
2022/10/21 07:06:04;;;;;;;;;;;;;;;;;;4998305;28;19976;-79
2022/10/21 07:08:29;;;;;;;;;;;;;;;;;;4993511;28;19921;-79
2022/10/21 07:10:55;;;;;;;;;;;;;;;;;;5003836;28;20352;-79
2022/10/21 07:13:20;;;;;;;;;;;;;;;;;;5002935;28;20441;-80
2022/10/21 07:15:46;;;;;;;;;;;;;;;;;;5011036;28;19921;-79
2022/10/21 07:18:11;;;;;;;;;;;;;;;;;;4983797;28;19984;-80
2022/10/21 07:20:37;;;;;;;;;;;;;;;;;;5010235;28;19914;-78
2022/10/21 07:23:02;;;;;;;;;;;;;;;;;;5004480;28;19913;-78
2022/10/21 07:25:28;;;;;;;;;;;;;;;;;;5006038;28;19920;-79
2022/10/21 07:27:53;;;;;;;;;;;;;;;;;;4994636;28;19936;-81
2022/10/21 07:30:19;;;;;;;;;;;;;;;;;;4994939;28;19968;-81
2022/10/21 07:32:44;;;;;;;;;;;;;;;;;;5002022;28;19913;-79
2022/10/21 07:35:10;;;;;;;;;;;;;;;;;;5026937;28;19917;-78
2022/10/21 07:37:35;;;;;;;;;;;;;;;;;;5009749;28;19917;-79
2022/10/21 07:40:01;;;;;;;;;;;;;;;;;;4982384;28;20005;-80
2022/10/21 07:42:26;;;;;;;;;;;;;;;;;;5026439;28;20008;-79
2022/10/21 07:44:56;;;;;;;;;;;;;;;;;;5020175;28;19916;-82
2022/10/21 07:47:21;;;;;;;;;;;;;;;;;;5019649;28;20299;-79
2022/10/21 07:49:47;;;;;;;;;;;;;;;;;;4994853;28;19909;-78
2022/10/21 07:52:12;;;;;;;;;;;;;;;;;;5015648;28;20297;-79
2022/10/21 07:54:37;;;;;;;;;;;;;;;;;;5032652;28;19959;-80
2022/10/21 07:57:03;;;;;;;;;;;;;;;;;;4995051;28;19935;-80
2022/10/21 07:59:28;;;;;;;;;;;;;;;;;;5026235;28;20368;-80
2022/10/21 08:01:54;;;;;;;;;;;;;;;;;;5035564;28;19913;-83
2022/10/21 08:04:20;;;;;;;;;;;;;;;;;;5024076;28;19920;-80
2022/10/21 08:06:45;;;;;;;;;;;;;;;;;;4999328;28;19917;-74
2022/10/21 08:09:11;;;;;;;;;;;;;;;;;;5027026;28;19967;-74
2022/10/21 08:11:36;;;;;;;;;;;;;;;;;;4990720;28;19917;-78
2022/10/21 08:14:02;;;;;;;;;;;;;;;;;;5016995;28;19917;-76
2022/10/21 08:16:27;;;;;;;;;;;;;;;;;;4988891;28;19913;-75
2022/10/21 08:18:53;;;;;;;;;;;;;;;;;;5027829;28;19972;-77
2022/10/21 08:21:19;;;;;;;;;;;;;;;;;;5027776;28;19917;-77
2022/10/21 08:23:45;;;;;;;;;;;;;;;;;;4987670;28;20012;-75
2022/10/21 08:26:10;;;;;;;;;;;;;;;;;;5031375;28;19920;-74
2022/10/21 08:28:36;;;;;;;;;;;;;;;;;;5021343;28;19998;-73
2022/10/21 08:31:01;;;;;;;;;;;;;;;;;;5024714;28;19917;-73
2022/10/21 08:33:26;;;;;;;;;;;;;;;;;;5026737;28;20015;-74
2022/10/21 08:35:52;;;;;;;;;;;;;;;;;;5018868;28;19987;-75
2022/10/21 08:38:18;;;;;;;;;;;;;;;;;;5015292;28;20343;-75
2022/10/21 08:40:44;;;;;;;;;;;;;;;;;;4989797;28;19913;-75
2022/10/21 08:43:10;;;;;;;;;;;;;;;;;;5004475;28;20387;-73
2022/10/21 08:45:36;;;;;;;;;;;;;;;;;;5011754;28;19917;-74
2022/10/21 08:48:01;;;;;;;;;;;;;;;;;;5016882;28;20368;-74
2022/10/21 08:50:26;;;;;;;;;;;;;;;;;;5012257;28;20004;-74
2022/10/21 08:52:52;;;;;;;;;;;;;;;;;;5021276;28;19959;-75
2022/10/21 08:55:17;;;;;;;;;;;;;;;;;;5038107;28;20044;-75
2022/10/21 08:57:43;;;;;;;;;;;;;;;;;;5028191;28;19913;-73
2022/10/21 09:00:09;;;;;;;;;;;;;;;;;;5018100;28;20403;-78
2022/10/21 09:02:35;;;;;;;;;;;;;;;;;;5027571;28;19924;-74
2022/10/21 09:05:00;;;;;;;;;;;;;;;;;;5022596;28;19956;-76
2022/10/21 09:07:26;;;;;;;;;;;;;;;;;;4988083;28;19917;-77
2022/10/21 09:09:53;;;;;;;;;;;;;;;;;;5009756;23;20458;-80
2022/10/21 09:12:19;;;;;;;;;;;;;;;;;;5039521;28;19918;-80
2022/10/21 09:14:44;;;;;;;;;;;;;;;;;;5003118;28;20100;-86
2022/10/21 09:17:10;;;;;;;;;;;;;;;;;;5016241;28;19913;-86
2022/10/21 09:19:35;;;;;;;;;;;;;;;;;;5000930;28;19956;-86
2022/10/21 09:22:00;;;;;;;;;;;;;;;;;;5011045;28;19921;-87
2022/10/21 09:24:26;;;;;;;;;;;;;;;;;;4982770;28;19964;-87
2022/10/21 09:26:51;;;;;;;;;;;;;;;;;;5006655;28;20553;-85
2022/10/21 09:29:17;;;;;;;;;;;;;;;;;;4989161;28;20441;-87
2022/10/21 09:31:42;;;;;;;;;;;;;;;;;;4999831;28;19914;-87
2022/10/21 09:34:07;;;;;;;;;;;;;;;;;;4976088;28;19914;-86
2022/10/21 09:36:33;;;;;;;;;;;;;;;;;;5008776;28;19965;-85
2022/10/21 09:38:58;;;;;;;;;;;;;;;;;;4992951;28;20296;-86
2022/10/21 09:41:23;;;;;;;;;;;;;;;;;;4989123;28;20016;-86
2022/10/21 09:43:49;;;;;;;;;;;;;;;;;;4977017;28;20370;-85
2022/10/21 09:46:14;;;;;;;;;;;;;;;;;;4962640;28;19953;-85
2022/10/21 09:48:39;;;;;;;;;;;;;;;;;;5006010;28;20216;-87
2022/10/21 09:51:05;;;;;;;;;;;;;;;;;;5003463;28;19964;-84
2022/10/21 09:53:30;;;;;;;;;;;;;;;;;;4999255;28;19921;-87
2022/10/21 09:55:57;;;;;;;;;;;;;;;;;;4992821;28;20004;-85
2022/10/21 09:58:22;;;;;;;;;;;;;;;;;;4994453;28;19917;-88
2022/10/21 10:00:48;;;;;;;;;;;;;;;;;;4968757;28;20342;-88
2022/10/21 10:03:14;;;;;;;;;;;;;;;;;;5014867;28;19920;-89
2022/10/21 10:05:39;;;;;;;;;;;;;;;;;;4998780;28;19914;-88
2022/10/21 10:08:05;;;;;;;;;;;;;;;;;;5009763;28;20004;-90
2022/10/21 10:10:30;;;;;;;;;;;;;;;;;;4997053;28;20008;-90
2022/10/21 10:12:56;;;;;;;;;;;;;;;;;;4987403;28;19917;-89
2022/10/21 10:15:22;;;;;;;;;;;;;;;;;;5004784;28;19949;-90
2022/10/21 10:17:47;;;;;;;;;;;;;;;;;;4961174;28;19921;-90
2022/10/21 10:20:12;;;;;;;;;;;;;;;;;;4961950;28;20388;-85
2022/10/21 10:22:40;;;;;;;;;;;;;;;;;;5006045;28;19992;-86
2022/10/21 10:25:05;;;;;;;;;;;;;;;;;;5002783;28;19913;-86
2022/10/21 10:27:31;;;;;;;;;;;;;;;;;;4998309;28;19914;-84
2022/10/21 10:29:56;;;;;;;;;;;;;;;;;;5007938;28;19918;-83
2022/10/21 10:32:21;;;;;;;;;;;;;;;;;;4971699;28;19918;-85
2022/10/21 10:34:47;;;;;;;;;;;;;;;;;;4987492;28;19960;-84
2022/10/21 10:37:12;;;;;;;;;;;;;;;;;;5002425;28;19932;-84
2022/10/21 10:39:37;;;;;;;;;;;;;;;;;;5006828;28;19913;-84
2022/10/21 10:42:03;;;;;;;;;;;;;;;;;;4996050;28;19917;-83
2022/10/21 10:44:28;;;;;;;;;;;;;;;;;;5007562;28;20008;-85
2022/10/21 10:46:54;;;;;;;;;;;;;;;;;;4987556;28;19921;-84
2022/10/21 10:49:22;;;;;;;;;;;;;;;;;;5003210;28;19914;-85
2022/10/21 10:51:48;;;;;;;;;;;;;;;;;;4996434;28;19931;-84
2022/10/21 10:54:13;;;;;;;;;;;;;;;;;;4993591;28;20000;-82
2022/10/21 10:56:38;;;;;;;;;;;;;;;;;;4991986;28;20309;-84
2022/10/21 10:59:04;;;;;;;;;;;;;;;;;;4993235;28;20347;-83
2022/10/21 11:01:29;;;;;;;;;;;;;;;;;;4993223;28;20456;-83
2022/10/21 11:03:55;;;;;;;;;;;;;;;;;;4993029;28;19921;-82
2022/10/21 11:06:20;;;;;;;;;;;;;;;;;;4993226;28;19940;-83
2022/10/21 11:08:45;;;;;;;;;;;;;;;;;;4991526;28;20272;-82
2022/10/21 11:11:11;;;;;;;;;;;;;;;;;;4993802;28;19925;-82
2022/10/21 11:13:36;;;;;;;;;;;;;;;;;;4996188;28;19914;-82
2022/10/21 11:16:02;;;;;;;;;;;;;;;;;;4999753;28;19914;-82
2022/10/21 11:18:30;;;;;;;;;;;;;;;;;;4999154;28;20288;-81
2022/10/21 11:20:55;;;;;;;;;;;;;;;;;;4996269;28;19917;-81
2022/10/21 11:23:21;;;;;;;;;;;;;;;;;;4996227;28;19959;-83
2022/10/21 11:25:46;;;;;;;;;;;;;;;;;;4993358;28;20353;-83
2022/10/21 11:28:12;;;;;;;;;;;;;;;;;;4993278;28;19914;-83
2022/10/21 11:30:37;;;;;;;;;;;;;;;;;;4992851;28;20568;-81
2022/10/21 11:33:03;;;;;;;;;;;;;;;;;;4993504;28;20389;-82
2022/10/21 11:35:28;;;;;;;;;;;;;;;;;;4996994;28;19914;-82
2022/10/21 11:37:53;;;;;;;;;;;;;;;;;;4995730;28;19914;-82
2022/10/21 11:40:19;;;;;;;;;;;;;;;;;;4996372;28;19914;-81
2022/10/21 11:42:44;;;;;;;;;;;;;;;;;;4996008;28;20299;-82
2022/10/21 11:45:09;;;;;;;;;;;;;;;;;;4995770;28;20274;-83
2022/10/21 11:47:35;;;;;;;;;;;;;;;;;;4979164;28;19969;-80
2022/10/21 11:50:01;;;;;;;;;;;;;;;;;;4999109;28;19914;-81
2022/10/21 11:52:26;;;;;;;;;;;;;;;;;;4996724;28;20378;-82
2022/10/21 11:54:52;;;;;;;;;;;;;;;;;;4995173;28;19925;-83
2022/10/21 11:57:17;;;;;;;;;;;;;;;;;;4994993;28;19913;-81
2022/10/21 11:59:42;;;;;;;;;;;;;;;;;;4995734;28;19921;-83
2022/10/21 12:02:08;;;;;;;;;;;;;;;;;;4996343;28;19914;-89
2022/10/21 12:04:33;;;;;;;;;;;;;;;;;;4961535;28;20297;-86
2022/10/21 12:06:58;;;;;;;;;;;;;;;;;;4979306;28;19920;-80
2022/10/21 12:09:24;;;;;;;;;;;;;;;;;;4977758;28;20286;-82
2022/10/21 12:11:49;;;;;;;;;;;;;;;;;;4977152;28;19918;-81
2022/10/21 12:14:15;;;;;;;;;;;;;;;;;;4975730;28;19972;-83
2022/10/21 12:16:40;;;;;;;;;;;;;;;;;;4976472;28;19914;-82
2022/10/21 12:19:06;;;;;;;;;;;;;;;;;;4987697;28;19936;-77
2022/10/21 12:21:31;;;;;;;;;;;;;;;;;;5004323;28;19925;-80
2022/10/21 12:23:57;;;;;;;;;;;;;;;;;;4998239;28;19924;-79
2022/10/21 12:26:22;;;;;;;;;;;;;;;;;;4996200;28;19913;-78
2022/10/21 12:28:48;;;;;;;;;;;;;;;;;;4993719;28;19997;-79
2022/10/21 12:31:13;;;;;;;;;;;;;;;;;;4995244;28;19918;-79
2022/10/21 12:33:39;;;;;;;;;;;;;;;;;;4994680;28;19914;-78
2022/10/21 12:36:04;;;;;;;;;;;;;;;;;;4995729;28;19913;-84
2022/10/21 12:38:29;;;;;;;;;;;;;;;;;;4995544;28;19980;-85
2022/10/21 12:40:55;;;;;;;;;;;;;;;;;;4977592;28;19914;-82
2022/10/21 12:43:22;;;;;;;;;;;;;;;;;;4994989;28;19922;-83
2022/10/21 12:45:48;;;;;;;;;;;;;;;;;;4994241;28;19918;-88
2022/10/21 12:48:13;;;;;;;;;;;;;;;;;;4995129;28;19965;-88
2022/10/21 12:50:38;;;;;;;;;;;;;;;;;;4962849;28;20388;-88
2022/10/21 12:53:04;;;;;;;;;;;;;;;;;;4994279;28;20009;-83
2022/10/21 12:55:34;;;;;;;;;;;;;;;;;;4993548;28;19914;-79
2022/10/21 12:58:00;;;;;;;;;;;;;;;;;;4994794;28;19945;-82
2022/10/21 13:00:25;;;;;;;;;;;;;;;;;;4994340;28;19952;-86
2022/10/21 13:02:50;;;;;;;;;;;;;;;;;;4978617;28;20426;-81
2022/10/21 13:05:16;;;;;;;;;;;;;;;;;;4993802;28;20377;-81
2022/10/21 13:07:41;;;;;;;;;;;;;;;;;;4994818;28;19914;-83
2022/10/21 13:10:08;;;;;;;;;;;;;;;;;;4977206;28;19971;-85
2022/10/21 13:12:34;;;;;;;;;;;;;;;;;;4993580;28;19957;-86
2022/10/21 13:14:59;;;;;;;;;;;;;;;;;;4994462;28;19981;-87
2022/10/21 13:17:25;;;;;;;;;;;;;;;;;;4995991;28;19914;-81
2022/10/21 13:19:50;;;;;;;;;;;;;;;;;;4980738;28;19972;-91
2022/10/21 13:22:16;;;;;;;;;;;;;;;;;;4970081;28;20381;-85
2022/10/21 13:24:41;;;;;;;;;;;;;;;;;;5004664;28;19913;-83
2022/10/21 13:27:07;;;;;;;;;;;;;;;;;;4962995;28;19926;-83
2022/10/21 13:29:32;;;;;;;;;;;;;;;;;;4993324;28;19940;-79
2022/10/21 13:31:58;;;;;;;;;;;;;;;;;;4994605;28;19933;-82
2022/10/21 13:34:23;;;;;;;;;;;;;;;;;;4977546;28;19914;-83
2022/10/21 13:36:49;;;;;;;;;;;;;;;;;;4978321;28;20270;-88
2022/10/21 13:39:14;;;;;;;;;;;;;;;;;;4978894;28;19914;-86
2022/10/21 13:41:40;;;;;;;;;;;;;;;;;;4997863;28;19914;-86
2022/10/21 13:44:05;;;;;;;;;;;;;;;;;;4978395;28;19921;-93
2022/10/21 13:46:31;;;;;;;;;;;;;;;;;;4979965;28;20366;-77
2022/10/21 13:48:59;;;;;;;;;;;;;;;;;;4992750;28;20068;-86
2022/10/21 13:51:25;;;;;;;;;;;;;;;;;;4993701;28;19977;-85
2022/10/21 13:53:50;;;;;;;;;;;;;;;;;;4977077;28;19961;-88
2022/10/21 13:56:15;;;;;;;;;;;;;;;;;;4961522;28;19910;-85
2022/10/21 13:58:41;;;;;;;;;;;;;;;;;;4960916;28;20262;-85
2022/10/21 14:01:09;;;;;;;;;;;;;;;;;;4993929;28;19913;-91
2022/10/21 14:03:34;;;;;;;;;;;;;;;;;;4994212;28;19936;-81
2022/10/21 14:06:00;;;;;;;;;;;;;;;;;;4992316;28;20008;-83
2022/10/21 14:08:25;;;;;;;;;;;;;;;;;;4992289;28;20012;-85
2022/10/21 14:10:51;;;;;;;;;;;;;;;;;;4976545;28;19917;-86
2022/10/21 14:13:16;;;;;;;;;;;;;;;;;;4976378;28;19925;-80
2022/10/21 14:15:41;;;;;;;;;;;;;;;;;;4992407;28;19914;-84
2022/10/21 14:18:07;;;;;;;;;;;;;;;;;;4959567;28;19940;-85
2022/10/21 14:20:32;;;;;;;;;;;;;;;;;;4992176;28;19930;-78
2022/10/21 14:22:58;;;;;;;;;;;;;;;;;;4992121;28;19936;-80
2022/10/21 14:25:23;;;;;;;;;;;;;;;;;;4976063;28;20378;-80
2022/10/21 14:27:49;;;;;;;;;;;;;;;;;;4993386;28;20378;-83
2022/10/21 14:30:14;;;;;;;;;;;;;;;;;;4976552;28;19974;-86
2022/10/21 14:32:39;;;;;;;;;;;;;;;;;;4993404;28;19920;-89
2022/10/21 14:35:05;;;;;;;;;;;;;;;;;;4992707;28;19917;-85
2022/10/21 14:37:30;;;;;;;;;;;;;;;;;;4992515;28;19921;-86
2022/10/21 14:39:55;;;;;;;;;;;;;;;;;;4992625;28;19918;-81
2022/10/21 14:42:21;;;;;;;;;;;;;;;;;;4991711;28;20270;-81
2022/10/21 14:44:46;;;;;;;;;;;;;;;;;;4991745;28;19945;-90
2022/10/21 14:47:11;;;;;;;;;;;;;;;;;;4976151;28;20408;-83
2022/10/21 14:49:37;;;;;;;;;;;;;;;;;;4975617;28;19918;-82
2022/10/21 14:52:02;;;;;;;;;;;;;;;;;;4992564;28;19950;-80
2022/10/21 14:54:28;;;;;;;;;;;;;;;;;;4975523;28;20336;-82
2022/10/21 14:56:53;;;;;;;;;;;;;;;;;;4992933;28;20008;-80
2022/10/21 14:59:19;;;;;;;;;;;;;;;;;;4991298;28;20389;-82
2022/10/21 15:01:44;;;;;;;;;;;;;;;;;;4991882;28;19918;-79
2022/10/21 15:04:09;;;;;;;;;;;;;;;;;;4992515;28;19924;-84
2022/10/21 15:06:35;;;;;;;;;;;;;;;;;;4974872;28;20289;-81
2022/10/21 15:09:00;;;;;;;;;;;;;;;;;;5001866;23;20072;-83
2022/10/21 15:11:27;;;;;;;;;;;;;;;;;;4951572;28;20265;-78
2022/10/21 15:13:53;;;;;;;;;;;;;;;;;;4975750;28;20008;-80
2022/10/21 15:16:18;;;;;;;;;;;;;;;;;;4975964;28;20440;-83
2022/10/21 15:18:46;;;;;;;;;;;;;;;;;;4971577;28;20397;-78
2022/10/21 15:21:11;;;;;;;;;;;;;;;;;;4958895;28;20084;-82
2022/10/21 15:23:36;;;;;;;;;;;;;;;;;;4959355;28;20388;-79
2022/10/21 15:26:04;;;;;;;;;;;;;;;;;;4959713;28;19914;-87
2022/10/21 15:28:29;;;;;;;;;;;;;;;;;;4948120;28;19914;-81
2022/10/21 15:30:55;;;;;;;;;;;;;;;;;;4969799;28;19918;-79
2022/10/21 15:33:21;;;;;;;;;;;;;;;;;;5002824;28;19968;-84
2022/10/21 15:35:46;;;;;;;;;;;;;;;;;;4975381;28;19952;-86
2022/10/21 15:38:12;;;;;;;;;;;;;;;;;;4944223;28;19945;-84
2022/10/21 15:40:37;;;;;;;;;;;;;;;;;;4943239;28;19937;-85
2022/10/21 15:43:02;;;;;;;;;;;;;;;;;;4943364;28;19914;-84
2022/10/21 15:45:28;;;;;;;;;;;;;;;;;;4959450;28;19910;-87
2022/10/21 15:47:53;;;;;;;;;;;;;;;;;;4943815;28;20040;-87
2022/10/21 15:50:19;;;;;;;;;;;;;;;;;;4959347;28;19918;-87
2022/10/21 15:52:44;;;;;;;;;;;;;;;;;;4974416;28;20016;-87
2022/10/21 15:55:10;;;;;;;;;;;;;;;;;;4959504;28;19914;-86
2022/10/21 15:57:35;;;;;;;;;;;;;;;;;;4944119;28;20358;-87
2022/10/21 16:00:00;;;;;;;;;;;;;;;;;;4944212;28;19976;-85
2022/10/21 16:02:26;;;;;;;;;;;;;;;;;;4958886;28;19914;-86
2022/10/21 16:04:53;;;;;;;;;;;;;;;;;;4975568;28;20317;-87
2022/10/21 16:07:18;;;;;;;;;;;;;;;;;;4959408;28;20416;-88
2022/10/21 16:09:44;;;;;;;;;;;;;;;;;;4944274;28;19918;-80
2022/10/21 16:12:09;;;;;;;;;;;;;;;;;;4992699;28;19917;-79
2022/10/21 16:14:35;;;;;;;;;;;;;;;;;;4974847;28;19921;-78
2022/10/21 16:17:00;;;;;;;;;;;;;;;;;;4976585;28;19928;-84
2022/10/21 16:19:26;;;;;;;;;;;;;;;;;;4975906;28;19963;-78
2022/10/21 16:21:51;;;;;;;;;;;;;;;;;;4995965;28;19918;-78
2022/10/21 16:24:16;;;;;;;;;;;;;;;;;;4961822;28;20404;-77
2022/10/21 16:26:42;;;;;;;;;;;;;;;;;;4977307;28;20377;-77
2022/10/21 16:29:08;;;;;;;;;;;;;;;;;;4995041;28;20374;-84
2022/10/21 16:31:33;;;;;;;;;;;;;;;;;;4983724;28;19917;-90
2022/10/21 16:33:58;;;;;;;;;;;;;;;;;;4997394;28;19914;-89